createdAt,value
2019-03-26T00:00:37.698Z,12.55
2019-03-26T00:03:08.518Z,11.78
2019-03-26T00:05:39.490Z,11.35
2019-03-26T00:08:10.339Z,12.00
2019-03-26T00:10:41.302Z,11.10
2019-03-26T00:13:12.395Z,10.58
2019-03-26T00:15:43.336Z,11.70
2019-03-26T00:18:14.765Z,11.30
2019-03-26T00:20:45.720Z,10.78
2019-03-26T00:25:46.439Z,11.83
2019-03-26T00:28:17.129Z,11.88
2019-03-26T00:30:47.917Z,12.73
2019-03-26T00:33:18.509Z,10.32
2019-03-26T00:35:49.331Z,9.58
2019-03-26T00:38:20.033Z,11.78
2019-03-26T00:40:50.796Z,10.13
2019-03-26T00:45:50.777Z,9.03
2019-03-26T00:48:22.311Z,10.15
2019-03-26T00:50:53.078Z,10.35
2019-03-26T00:53:24.145Z,9.85
2019-03-26T00:55:54.727Z,10.53
2019-03-26T00:58:25.991Z,10.72
2019-03-26T01:00:56.609Z,10.93
2019-03-26T01:03:26.671Z,11.18
2019-03-26T01:05:57.503Z,10.20
2019-03-26T01:08:28.159Z,11.03
2019-03-26T01:10:59.063Z,10.85
2019-03-26T01:13:30.996Z,10.88
2019-03-26T01:16:01.654Z,11.15
2019-03-26T01:18:32.460Z,9.98
2019-03-26T01:21:03.041Z,9.58
2019-03-26T01:23:34.182Z,10.18
2019-03-26T01:26:05.428Z,10.32
2019-03-26T01:28:36.602Z,9.35
2019-03-26T01:31:08.020Z,10.90
2019-03-26T01:33:38.967Z,11.35
2019-03-26T01:36:09.562Z,10.70
2019-03-26T01:38:43.300Z,9.68
2019-03-26T01:41:14.068Z,10.65
2019-03-26T01:43:46.079Z,10.20
2019-03-26T01:46:18.267Z,11.03
2019-03-26T01:48:49.222Z,10.48
2019-03-26T01:51:21.057Z,11.95
2019-03-26T01:53:52.334Z,12.03
2019-03-26T01:56:23.076Z,10.35
2019-03-26T01:58:54.147Z,10.80
2019-03-26T02:01:24.690Z,11.28
2019-03-26T02:03:57.817Z,11.30
2019-03-26T02:06:28.039Z,12.18
2019-03-26T02:08:59.028Z,10.85
2019-03-26T02:11:30.005Z,11.43
2019-03-26T02:14:01.830Z,11.83
2019-03-26T02:16:34.148Z,12.75
2019-03-26T02:19:04.747Z,11.35
2019-03-26T02:24:04.938Z,14.73
2019-03-26T02:26:35.634Z,13.43
2019-03-26T02:29:06.325Z,14.03
2019-03-26T02:31:36.998Z,14.60
2019-03-26T02:34:07.127Z,15.60
2019-03-26T02:36:38.031Z,16.27
2019-03-26T02:39:08.942Z,15.08
2019-03-26T02:41:39.739Z,17.23
2019-03-26T02:44:10.141Z,14.65
2019-03-26T02:46:40.756Z,15.18
2019-03-26T02:49:11.063Z,16.00
2019-03-26T02:51:41.906Z,16.65
2019-03-26T02:54:12.309Z,19.15
2019-03-26T02:56:43.488Z,18.23
2019-03-26T02:59:14.305Z,18.27
2019-03-26T03:01:45.052Z,16.15
2019-03-26T03:04:16.035Z,15.78
2019-03-26T03:06:47.067Z,16.37
2019-03-26T03:09:18.045Z,15.48
2019-03-26T03:11:49.001Z,16.82
2019-03-26T03:14:19.946Z,18.17
2019-03-26T03:16:51.185Z,18.92
2019-03-26T03:19:21.945Z,19.95
2019-03-26T03:21:52.709Z,20.08
2019-03-26T03:25:02.041Z,18.92
2019-03-26T03:27:32.812Z,19.35
2019-03-26T03:30:03.816Z,22.17
2019-03-26T03:32:34.513Z,22.75
2019-03-26T03:35:05.616Z,21.68
2019-03-26T03:37:36.538Z,21.20
2019-03-26T03:40:08.644Z,21.75
2019-03-26T03:45:11.306Z,20.60
2019-03-26T03:47:42.979Z,22.58
2019-03-26T03:50:13.905Z,23.57
2019-03-26T03:52:46.389Z,22.85
2019-03-26T03:55:17.491Z,21.55
2019-03-26T03:57:52.948Z,25.32
2019-03-26T04:00:43.461Z,22.85
2019-03-26T04:03:14.507Z,23.10
2019-03-26T04:05:45.117Z,22.62
2019-03-26T04:08:15.733Z,21.82
2019-03-26T04:10:46.492Z,22.35
2019-03-26T04:13:16.689Z,21.93
2019-03-26T04:15:47.027Z,21.03
2019-03-26T04:18:17.292Z,22.07
2019-03-26T04:20:47.556Z,22.52
2019-03-26T04:23:17.878Z,21.65
2019-03-26T04:25:48.059Z,22.75
2019-03-26T04:28:18.556Z,22.22
2019-03-26T04:30:48.878Z,20.45
2019-03-26T04:33:19.024Z,19.45
2019-03-26T04:35:49.137Z,21.30
2019-03-26T04:38:19.516Z,22.32
2019-03-26T04:40:50.002Z,19.95
2019-03-26T04:43:20.084Z,21.02
2019-03-26T04:45:50.380Z,21.00
2019-03-26T04:48:20.667Z,18.80
2019-03-26T04:50:51.128Z,21.87
2019-03-26T04:53:22.553Z,21.10
2019-03-26T04:55:52.702Z,18.87
2019-03-26T05:00:51.954Z,19.85
2019-03-26T05:03:23.561Z,23.20
2019-03-26T05:05:53.439Z,20.97
2019-03-26T05:08:23.769Z,20.82
2019-03-26T05:13:22.948Z,21.62
2019-03-26T05:15:53.045Z,21.93
2019-03-26T05:18:23.584Z,22.20
2019-03-26T05:20:53.846Z,21.55
2019-03-26T05:23:23.934Z,24.45
2019-03-26T05:25:54.291Z,21.70
2019-03-26T05:28:24.741Z,25.75
2019-03-26T05:33:23.894Z,21.12
2019-03-26T05:35:53.933Z,23.00
2019-03-26T05:38:23.969Z,23.10
2019-03-26T05:40:54.033Z,24.70
2019-03-26T05:43:24.671Z,22.55
2019-03-26T05:45:54.967Z,22.87
2019-03-26T05:48:25.296Z,23.00
2019-03-26T05:50:55.720Z,23.57
2019-03-26T05:53:26.059Z,21.77
2019-03-26T05:55:56.430Z,22.27
2019-03-26T05:58:27.309Z,22.05
2019-03-26T06:00:57.718Z,22.17
2019-03-26T06:05:59.320Z,23.05
2019-03-26T06:08:30.328Z,21.48
2019-03-26T06:11:00.936Z,24.20
2019-03-26T06:13:30.994Z,20.80
2019-03-26T06:16:01.539Z,19.92
2019-03-26T06:18:31.912Z,20.72
2019-03-26T06:21:02.032Z,20.75
2019-03-26T06:23:32.521Z,18.82
2019-03-26T06:26:03.326Z,20.35
2019-03-26T06:28:33.972Z,19.25
2019-03-26T06:31:04.580Z,20.02
2019-03-26T06:33:34.907Z,20.85
2019-03-26T06:36:05.287Z,18.55
2019-03-26T06:38:35.692Z,23.38
2019-03-26T06:41:05.843Z,27.10
2019-03-26T06:43:35.899Z,19.65
2019-03-26T06:46:06.091Z,20.35
2019-03-26T06:48:36.954Z,17.82
2019-03-26T06:51:07.294Z,20.27
2019-03-26T06:53:37.700Z,16.52
2019-03-26T06:56:07.929Z,19.00
2019-03-26T06:58:39.442Z,18.95
2019-03-26T07:01:09.961Z,18.77
2019-03-26T07:03:40.728Z,19.85
2019-03-26T07:06:10.991Z,18.75
2019-03-26T07:08:41.959Z,21.42
2019-03-26T07:11:12.091Z,19.87
2019-03-26T07:13:42.564Z,17.15
2019-03-26T07:16:13.005Z,19.92
2019-03-26T07:18:43.632Z,22.10
2019-03-26T07:21:13.900Z,20.68
2019-03-26T07:23:44.136Z,18.98
2019-03-26T07:26:14.732Z,18.42
2019-03-26T07:31:14.819Z,19.55
2019-03-26T07:33:44.935Z,16.93
2019-03-26T07:36:14.965Z,16.65
2019-03-26T07:38:45.292Z,15.45
2019-03-26T07:41:15.977Z,16.17
2019-03-26T07:43:46.059Z,17.90
2019-03-26T07:46:16.518Z,19.50
2019-03-26T07:48:47.152Z,17.17
2019-03-26T07:51:17.751Z,20.12
2019-03-26T07:56:17.694Z,18.45
2019-03-26T07:58:47.980Z,16.95
2019-03-26T08:01:18.997Z,17.70
2019-03-26T08:03:49.812Z,18.30
2019-03-26T08:06:20.028Z,18.70
2019-03-26T08:08:50.582Z,18.87
2019-03-26T08:13:50.817Z,20.15
2019-03-26T08:16:22.132Z,21.73
2019-03-26T08:18:52.847Z,20.23
2019-03-26T08:21:23.049Z,19.30
2019-03-26T08:23:53.665Z,20.10
2019-03-26T08:26:23.971Z,21.20
2019-03-26T08:28:55.446Z,19.87
2019-03-26T08:31:26.011Z,17.05
2019-03-26T08:33:56.142Z,17.85
2019-03-26T08:36:26.889Z,21.57
2019-03-26T08:38:57.556Z,19.07
2019-03-26T08:41:27.900Z,20.08
2019-03-26T08:43:58.295Z,19.12
2019-03-26T08:46:28.720Z,17.05
2019-03-26T08:51:28.529Z,19.15
2019-03-26T08:53:58.965Z,20.05
2019-03-26T08:56:29.889Z,16.77
2019-03-26T08:59:00.149Z,18.02
2019-03-26T09:01:30.782Z,17.17
2019-03-26T09:06:30.872Z,19.45
2019-03-26T09:09:01.418Z,19.98
2019-03-26T09:11:36.065Z,19.82
2019-03-26T09:14:09.666Z,18.65
2019-03-26T09:19:09.692Z,19.20
2019-03-26T09:24:09.993Z,19.27
2019-03-26T09:26:42.048Z,19.48
2019-03-26T09:29:14.429Z,16.55
2019-03-26T09:31:47.895Z,16.95
2019-03-26T09:34:18.776Z,16.17
2019-03-26T09:36:49.012Z,16.57
2019-03-26T09:39:19.780Z,18.40
2019-03-26T09:41:50.046Z,18.17
2019-03-26T09:44:20.538Z,15.38
2019-03-26T09:46:50.635Z,17.57
2019-03-26T09:49:20.637Z,15.35
2019-03-26T09:51:50.922Z,13.32
2019-03-26T09:54:21.045Z,14.85
2019-03-26T09:56:51.601Z,13.70
2019-03-26T09:59:22.100Z,13.32
2019-03-26T10:01:52.708Z,15.13
2019-03-26T10:06:52.002Z,17.25
2019-03-26T10:09:22.124Z,15.25
2019-03-26T10:11:52.537Z,11.68
2019-03-26T10:14:23.015Z,14.38
2019-03-26T10:16:54.449Z,16.00
2019-03-26T10:19:24.972Z,16.40
2019-03-26T10:21:56.330Z,18.05
2019-03-26T10:24:27.050Z,13.10
2019-03-26T10:26:57.737Z,14.75
2019-03-26T10:31:59.744Z,12.88
2019-03-26T10:34:30.759Z,13.03
2019-03-26T10:37:24.932Z,12.82
2019-03-26T10:39:55.145Z,13.88
2019-03-26T10:42:25.568Z,12.15
2019-03-26T10:44:55.875Z,14.47
2019-03-26T10:47:26.299Z,15.85
2019-03-26T10:49:56.734Z,13.30
2019-03-26T10:54:55.961Z,11.45
2019-03-26T10:57:26.282Z,15.85
2019-03-26T10:59:56.596Z,12.37
2019-03-26T11:04:59.949Z,16.30
2019-03-26T11:07:30.123Z,11.97
2019-03-26T11:10:00.641Z,11.08
2019-03-26T11:12:32.133Z,12.70
2019-03-26T11:15:02.786Z,11.80
2019-03-26T11:17:34.002Z,11.48
2019-03-26T11:20:06.956Z,10.50
2019-03-26T11:22:37.600Z,15.20
2019-03-26T11:30:07.743Z,11.00
2019-03-26T11:32:38.033Z,7.55
2019-03-26T11:35:09.166Z,8.75
2019-03-26T11:37:40.768Z,8.30
2019-03-26T11:42:44.026Z,8.38
2019-03-26T11:45:15.041Z,9.58
2019-03-26T11:47:45.579Z,8.25
2019-03-26T11:50:16.910Z,8.65
2019-03-26T11:52:47.044Z,8.88
2019-03-26T11:55:17.930Z,7.62
2019-03-26T11:57:48.763Z,8.85
2019-03-26T12:02:52.544Z,7.85
2019-03-26T12:05:23.024Z,8.88
2019-03-26T12:07:53.569Z,9.00
2019-03-26T12:10:23.974Z,6.53
2019-03-26T12:12:54.562Z,8.23
2019-03-26T12:15:24.935Z,8.93
2019-03-26T12:17:55.294Z,8.35
2019-03-26T12:20:25.783Z,10.10
2019-03-26T12:22:56.168Z,9.18
2019-03-26T12:25:27.173Z,9.95
2019-03-26T12:27:57.732Z,13.90
2019-03-26T12:35:37.052Z,8.60
2019-03-26T12:38:20.477Z,8.18
2019-03-26T12:40:51.427Z,8.28
2019-03-26T12:43:21.962Z,8.15
2019-03-26T12:45:52.980Z,10.65
2019-03-26T12:48:23.501Z,6.95
2019-03-26T12:50:54.005Z,6.17
2019-03-26T12:53:24.756Z,8.85
2019-03-26T12:55:54.937Z,6.75
2019-03-26T12:58:31.692Z,7.22
2019-03-26T13:00:57.914Z,9.18
2019-03-26T13:03:30.312Z,7.80
2019-03-26T13:06:00.842Z,9.25
2019-03-26T13:08:31.042Z,7.70
2019-03-26T13:11:01.517Z,7.83
2019-03-26T13:13:32.046Z,7.10
2019-03-26T13:16:02.483Z,7.20
2019-03-26T13:18:33.085Z,9.08
2019-03-26T13:21:03.864Z,9.88
2019-03-26T13:23:34.306Z,8.93
2019-03-26T13:26:05.135Z,10.15
2019-03-26T13:28:35.593Z,7.67
2019-03-26T13:33:35.036Z,8.33
2019-03-26T13:36:05.903Z,7.65
2019-03-26T13:38:36.178Z,8.20
2019-03-26T13:41:06.946Z,8.70
2019-03-26T13:43:37.579Z,7.70
2019-03-26T13:46:07.939Z,7.20
2019-03-26T13:48:38.160Z,8.20
2019-03-26T13:51:08.636Z,7.95
2019-03-26T13:56:09.293Z,7.10
2019-03-26T13:58:39.936Z,5.33
2019-03-26T14:01:09.986Z,6.45
2019-03-26T14:03:40.570Z,6.75
2019-03-26T14:06:10.574Z,5.78
2019-03-26T14:08:40.423Z,8.40
2019-03-26T14:11:10.904Z,8.10
2019-03-26T14:13:41.799Z,7.05
2019-03-26T14:16:12.303Z,6.05
2019-03-26T14:18:42.980Z,7.40
2019-03-26T14:21:13.642Z,5.80
2019-03-26T14:23:44.102Z,6.55
2019-03-26T14:26:14.963Z,5.97
2019-03-26T14:28:45.144Z,7.70
2019-03-26T14:31:18.131Z,5.28
2019-03-26T14:33:49.000Z,8.03
2019-03-26T14:36:19.728Z,8.73
2019-03-26T14:38:49.992Z,8.40
2019-03-26T14:41:20.328Z,7.37
2019-03-26T14:43:50.931Z,6.47
2019-03-26T14:46:21.517Z,9.00
2019-03-26T14:48:51.976Z,7.72
2019-03-26T14:51:23.257Z,9.13
2019-03-26T14:53:55.630Z,6.40
2019-03-26T14:56:26.014Z,9.03
2019-03-26T14:58:56.694Z,8.83
2019-03-26T15:01:27.149Z,10.23
2019-03-26T15:03:57.869Z,7.95
2019-03-26T15:06:28.134Z,8.80
2019-03-26T15:08:58.608Z,10.58
2019-03-26T15:14:06.541Z,8.98
2019-03-26T15:19:06.089Z,9.80
2019-03-26T15:21:36.553Z,10.68
2019-03-26T15:24:07.316Z,8.53
2019-03-26T15:26:37.715Z,12.18
2019-03-26T15:29:07.979Z,11.50
2019-03-26T15:31:38.763Z,7.92
2019-03-26T15:36:39.313Z,12.20
2019-03-26T15:39:09.933Z,9.85
2019-03-26T15:41:40.845Z,9.33
2019-03-26T15:44:11.432Z,10.45
2019-03-26T15:46:41.963Z,9.05
2019-03-26T15:49:12.495Z,12.20
2019-03-26T15:51:42.923Z,12.30
2019-03-26T15:54:13.502Z,8.35
2019-03-26T15:56:44.299Z,10.80
2019-03-26T15:59:15.056Z,12.05
2019-03-26T16:01:46.112Z,14.85
2019-03-26T16:04:16.781Z,10.45
2019-03-26T16:06:47.158Z,13.58
2019-03-26T16:09:17.625Z,13.78
2019-03-26T16:11:48.166Z,11.83
2019-03-26T16:14:19.268Z,11.18
2019-03-26T16:16:49.729Z,10.68
2019-03-26T16:21:54.114Z,16.07
2019-03-26T16:24:24.570Z,13.00
2019-03-26T16:26:55.955Z,21.82
2019-03-26T16:29:27.542Z,17.57
2019-03-26T16:31:58.706Z,16.00
2019-03-26T16:34:31.988Z,20.32
2019-03-26T16:37:07.406Z,20.27
2019-03-26T16:39:54.086Z,17.98
2019-03-26T16:42:31.400Z,19.87
2019-03-26T16:45:01.921Z,21.40
2019-03-26T16:47:32.099Z,20.10
2019-03-26T16:50:02.962Z,19.23
2019-03-26T16:52:34.043Z,20.43
2019-03-26T16:55:09.505Z,18.95
2019-03-26T17:00:20.156Z,18.77
2019-03-26T17:02:51.545Z,17.87
2019-03-26T17:05:31.459Z,20.92
2019-03-26T17:08:02.970Z,16.97
2019-03-26T17:10:36.140Z,19.62
2019-03-26T17:13:07.182Z,21.02
2019-03-26T17:15:41.124Z,18.90
2019-03-26T17:18:14.757Z,20.17
2019-03-26T17:20:45.722Z,19.48
2019-03-26T17:23:20.370Z,18.77
2019-03-26T17:26:00.218Z,23.32
2019-03-26T17:28:33.810Z,17.87
2019-03-26T17:31:07.351Z,22.42
2019-03-26T17:38:25.284Z,22.00
2019-03-26T17:42:45.011Z,23.07
2019-03-26T17:45:16.282Z,19.23
2019-03-26T17:47:53.432Z,21.23
2019-03-26T17:50:48.340Z,18.55
2019-03-26T17:53:50.170Z,18.67
2019-03-26T17:56:21.298Z,16.70
2019-03-26T17:58:54.281Z,18.87
2019-03-26T18:03:55.671Z,18.95
2019-03-26T18:06:27.161Z,17.25
2019-03-26T18:08:58.749Z,16.10
2019-03-26T18:14:01.074Z,15.58
2019-03-26T18:16:32.762Z,16.55
2019-03-26T18:19:04.317Z,17.45
2019-03-26T18:21:35.653Z,16.27
2019-03-26T18:26:38.727Z,16.70
2019-03-26T18:31:40.397Z,15.95
2019-03-26T18:34:11.528Z,14.70
2019-03-26T18:36:42.830Z,15.25
2019-03-26T18:39:13.595Z,13.83
2019-03-26T18:41:45.365Z,14.75
2019-03-26T18:44:17.792Z,15.43
2019-03-26T18:46:48.314Z,17.85
2019-03-26T18:49:22.023Z,17.10
2019-03-26T18:51:52.919Z,17.42
2019-03-26T18:54:23.104Z,15.28
2019-03-26T18:56:53.831Z,15.58
2019-03-26T18:59:24.724Z,14.60
2019-03-26T19:01:55.582Z,16.40
2019-03-26T19:06:58.113Z,16.42
2019-03-26T19:09:29.550Z,15.40
2019-03-26T19:12:00.005Z,14.30
2019-03-26T19:14:30.592Z,13.10
2019-03-26T19:17:00.959Z,16.77
2019-03-26T19:19:31.300Z,14.40
2019-03-26T19:22:02.028Z,15.50
2019-03-26T19:24:34.972Z,18.50
2019-03-26T19:27:05.618Z,16.30
2019-03-26T19:32:07.128Z,14.90
2019-03-26T19:34:38.207Z,14.80
2019-03-26T19:37:09.077Z,17.27
2019-03-26T19:39:40.302Z,19.40
2019-03-26T19:42:10.768Z,19.32
2019-03-26T19:44:42.044Z,15.15
2019-03-26T19:47:13.534Z,13.03
2019-03-26T19:49:45.331Z,15.98
2019-03-26T19:52:16.564Z,19.92
2019-03-26T19:54:53.665Z,19.42
2019-03-26T19:57:24.520Z,16.40
2019-03-26T20:00:01.742Z,14.03
2019-03-26T20:02:32.498Z,15.28
2019-03-26T20:05:04.453Z,15.90
2019-03-26T20:07:36.173Z,18.07
2019-03-26T20:10:08.360Z,16.00
2019-03-26T20:12:39.450Z,16.57
2019-03-26T20:15:11.313Z,17.77
2019-03-26T20:17:42.132Z,17.10
2019-03-26T20:20:14.299Z,16.60
2019-03-26T20:22:45.131Z,16.93
2019-03-26T20:25:16.354Z,20.75
2019-03-26T20:27:50.058Z,15.83
2019-03-26T20:30:22.317Z,16.87
2019-03-26T20:32:53.549Z,24.55
2019-03-26T20:35:24.021Z,17.07
2019-03-26T20:37:55.543Z,20.15
2019-03-26T20:42:55.139Z,21.33
2019-03-26T20:45:26.154Z,18.98
2019-03-26T20:47:56.926Z,20.25
2019-03-26T20:50:27.472Z,20.05
2019-03-26T20:52:57.979Z,15.35
2019-03-26T20:55:36.105Z,21.97
2019-03-26T20:58:07.754Z,17.77
2019-03-26T21:00:42.678Z,19.82
2019-03-26T21:03:15.828Z,19.25
2019-03-26T21:05:46.971Z,20.62
2019-03-26T21:08:17.818Z,21.65
2019-03-26T21:10:48.848Z,22.48
2019-03-26T21:13:19.311Z,20.27
2019-03-26T21:15:57.182Z,22.87
2019-03-26T21:18:22.757Z,22.15
2019-03-26T21:23:23.315Z,21.02
2019-03-26T21:25:54.616Z,17.75
2019-03-26T21:28:27.110Z,23.73
2019-03-26T21:30:58.311Z,19.92
2019-03-26T21:33:29.291Z,22.05
2019-03-26T21:36:00.623Z,19.32
2019-03-26T21:38:31.186Z,19.95
2019-03-26T21:41:04.880Z,20.08
2019-03-26T21:43:35.808Z,25.27
2019-03-26T21:46:07.066Z,20.40
2019-03-26T21:48:39.054Z,22.35
2019-03-26T21:51:13.241Z,20.37
2019-03-26T21:53:44.032Z,18.45
2019-03-26T21:56:15.046Z,20.80
2019-03-26T21:58:46.508Z,24.63
2019-03-26T22:01:17.308Z,24.37
2019-03-26T22:03:48.307Z,20.37
2019-03-26T22:06:19.040Z,18.65
2019-03-26T22:08:50.417Z,20.95
2019-03-26T22:11:21.306Z,22.65
2019-03-26T22:13:52.828Z,23.32
2019-03-26T22:16:23.300Z,21.93
2019-03-26T22:18:54.322Z,18.90
2019-03-26T22:21:26.129Z,23.45
2019-03-26T22:23:56.581Z,20.32
2019-03-26T22:26:26.934Z,20.02
2019-03-26T22:28:57.085Z,22.02
2019-03-26T22:31:27.572Z,20.10
2019-03-26T22:33:57.982Z,18.27
2019-03-26T22:36:28.488Z,19.77
2019-03-26T22:38:58.959Z,19.60
2019-03-26T22:41:29.308Z,20.68
2019-03-26T22:43:59.756Z,19.95
2019-03-26T22:48:59.039Z,21.23
2019-03-26T22:51:29.590Z,24.23
2019-03-26T22:53:59.929Z,18.70
2019-03-26T22:56:31.789Z,20.48
2019-03-26T22:59:03.147Z,20.68
2019-03-26T23:01:33.859Z,21.68
2019-03-26T23:04:06.999Z,19.98
2019-03-26T23:06:37.555Z,17.42
2019-03-26T23:09:08.848Z,19.40
2019-03-26T23:11:39.566Z,19.87
2019-03-26T23:14:10.342Z,19.90
2019-03-26T23:16:40.953Z,18.50
2019-03-26T23:19:11.559Z,23.47
2019-03-26T23:21:41.963Z,20.60
2019-03-26T23:24:12.578Z,21.33
2019-03-26T23:26:42.902Z,19.48
2019-03-26T23:29:13.108Z,19.67
2019-03-26T23:31:43.710Z,18.73
2019-03-26T23:34:13.972Z,20.60
2019-03-26T23:36:44.295Z,19.67
2019-03-26T23:39:14.878Z,18.17
2019-03-26T23:41:45.041Z,22.35
2019-03-26T23:44:25.299Z,19.37
2019-03-26T23:46:47.936Z,19.15
2019-03-26T23:49:18.314Z,18.80
2019-03-26T23:51:48.738Z,19.60
2019-03-26T23:56:46.985Z,21.65
2019-03-26T23:59:18.082Z,19.12
